createdAt,value
2024-02-24T00:06:33.975Z,7.3
2024-02-24T00:19:33.938Z,6.5
2024-02-24T00:32:33.971Z,5.9
2024-02-24T00:45:33.870Z,5.7
2024-02-24T00:58:33.896Z,5.2
2024-02-24T01:11:33.937Z,5.0
2024-02-24T01:24:33.903Z,4.3
2024-02-24T01:37:33.884Z,4.0
2024-02-24T01:50:33.959Z,4.2
2024-02-24T02:03:33.907Z,4.3
2024-02-24T02:16:33.942Z,4.5
2024-02-24T02:29:33.929Z,4.3
2024-02-24T02:42:33.953Z,4.5
2024-02-24T02:55:33.915Z,4.5
2024-02-24T03:08:34.019Z,4.7
2024-02-24T03:21:33.946Z,5.0
2024-02-24T03:34:33.992Z,5.6
2024-02-24T03:47:34.014Z,5.2
2024-02-24T04:00:33.943Z,4.9
2024-02-24T04:13:33.935Z,4.8
2024-02-24T04:26:34.031Z,5.0
2024-02-24T04:39:33.959Z,5.1
2024-02-24T04:52:34.004Z,5.0
2024-02-24T05:05:34.059Z,4.8
2024-02-24T05:18:34.098Z,4.5
2024-02-24T05:31:34.130Z,5.0
2024-02-24T05:44:34.067Z,4.9
2024-02-24T05:58:34.050Z,5.0
2024-02-24T06:12:34.072Z,4.9
2024-02-24T06:26:34.106Z,5.0
2024-02-24T06:40:37.771Z,5.3
2024-02-24T06:54:34.080Z,5.6
2024-02-24T07:09:34.091Z,6.0
2024-02-24T07:23:34.303Z,6.4
2024-02-24T07:37:34.082Z,6.7
2024-02-24T07:51:34.099Z,6.6
2024-02-24T08:05:34.150Z,7.6
2024-02-24T08:19:34.181Z,7.4
2024-02-24T08:33:34.209Z,8.6
2024-02-24T08:47:34.190Z,9.6
2024-02-24T09:01:34.192Z,9.5
2024-02-24T09:15:34.150Z,10.2
2024-02-24T09:29:34.175Z,11.0
2024-02-24T09:43:34.152Z,11.2
2024-02-24T09:57:34.126Z,11.4
2024-02-24T10:11:34.195Z,11.8
2024-02-24T10:25:34.147Z,12.4
2024-02-24T10:39:34.194Z,13.0
2024-02-24T10:53:34.406Z,12.7
2024-02-24T11:07:34.362Z,14.0
2024-02-24T11:21:34.206Z,14.1
2024-02-24T11:35:34.233Z,13.1
2024-02-24T11:49:34.216Z,13.9
2024-02-24T12:03:34.200Z,13.7
2024-02-24T12:17:34.249Z,14.8
2024-02-24T12:31:34.264Z,15.5
2024-02-24T12:45:34.193Z,15.6
2024-02-24T12:59:34.323Z,15.9
2024-02-24T13:13:34.232Z,15.9
2024-02-24T13:27:34.256Z,15.6
2024-02-24T13:42:34.269Z,15.2
2024-02-24T13:56:34.346Z,15.1
2024-02-24T14:10:34.289Z,13.3
2024-02-24T14:24:34.305Z,13.7
2024-02-24T14:38:34.300Z,13.5
2024-02-24T14:52:34.304Z,11.0
2024-02-24T15:06:34.316Z,8.9
2024-02-24T15:20:34.348Z,8.3
2024-02-24T15:35:34.324Z,9.2
2024-02-24T15:49:34.371Z,9.1
2024-02-24T16:03:34.306Z,8.6
2024-02-24T16:17:34.377Z,8.0
2024-02-24T16:31:34.412Z,7.7
2024-02-24T16:46:34.358Z,7.4
2024-02-24T17:00:34.337Z,7.1
2024-02-24T17:14:34.395Z,7.1
2024-02-24T17:28:34.390Z,7.2
2024-02-24T17:41:34.485Z,7.1
2024-02-24T17:54:34.515Z,7.2
2024-02-24T18:07:34.513Z,7.5
2024-02-24T18:20:34.531Z,7.9
2024-02-24T18:33:34.701Z,8.2
2024-02-24T18:46:34.534Z,8.1
2024-02-24T18:59:34.581Z,8.0
2024-02-24T19:12:34.604Z,7.8
2024-02-24T19:25:34.544Z,7.3
2024-02-24T19:38:34.582Z,6.9
2024-02-24T19:51:34.539Z,7.1
2024-02-24T20:04:34.558Z,7.7
2024-02-24T20:17:34.631Z,8.3
2024-02-24T20:31:34.621Z,8.5
2024-02-24T20:44:34.640Z,8.5
2024-02-24T20:57:34.587Z,8.6
2024-02-24T21:10:34.626Z,8.5
2024-02-24T21:24:34.638Z,8.7
2024-02-24T21:37:34.596Z,8.7
2024-02-24T21:50:34.640Z,8.8
2024-02-24T22:03:34.651Z,9.0
2024-02-24T22:16:34.614Z,8.9
2024-02-24T22:29:34.655Z,9.1
2024-02-24T22:43:34.675Z,9.0
2024-02-24T22:56:34.695Z,8.4
2024-02-24T23:09:34.697Z,8.2
2024-02-24T23:22:34.674Z,7.9
2024-02-24T23:35:37.214Z,7.4
2024-02-24T23:48:34.840Z,7.2
